createdAt,value
2023-03-30T00:01:18.018Z,93.80
2023-03-30T00:03:46.603Z,94.08
2023-03-30T00:06:21.489Z,93.52
2023-03-30T00:08:48.942Z,93.75
2023-03-30T00:11:17.620Z,93.70
2023-03-30T00:13:44.986Z,93.44
2023-03-30T00:16:13.685Z,93.72
2023-03-30T00:18:41.225Z,93.30
2023-03-30T00:21:09.896Z,93.44
2023-03-30T00:23:37.220Z,93.44
2023-03-30T00:26:04.542Z,92.98
2023-03-30T00:28:32.204Z,92.36
2023-03-30T00:30:59.159Z,92.06
2023-03-30T00:33:41.396Z,91.91
2023-03-30T00:36:11.837Z,91.92
2023-03-30T00:38:38.912Z,91.47
2023-03-30T00:41:07.490Z,91.25
2023-03-30T00:43:34.684Z,91.19
2023-03-30T00:46:01.836Z,91.25
2023-03-30T00:48:31.655Z,91.27
2023-03-30T00:50:59.202Z,91.04
2023-03-30T00:53:26.603Z,91.57
2023-03-30T00:55:57.942Z,91.26
2023-03-30T00:58:26.118Z,90.17
2023-03-30T01:00:53.596Z,89.97
2023-03-30T01:03:29.959Z,89.80
2023-03-30T01:05:58.334Z,89.67
2023-03-30T01:08:27.644Z,89.51
2023-03-30T01:10:56.310Z,89.15
2023-03-30T01:13:23.544Z,90.08
2023-03-30T01:15:53.902Z,90.50
2023-03-30T01:18:27.956Z,90.42
2023-03-30T01:21:04.785Z,89.64
2023-03-30T01:23:43.977Z,88.98
2023-03-30T01:26:19.216Z,89.99
2023-03-30T01:28:46.505Z,90.09
2023-03-30T01:31:26.072Z,90.12
2023-03-30T01:34:03.086Z,90.58
2023-03-30T01:36:37.320Z,90.70
2023-03-30T01:39:05.551Z,91.04
2023-03-30T01:41:41.970Z,91.83
2023-03-30T01:44:18.992Z,92.39
2023-03-30T01:46:50.638Z,93.68
2023-03-30T01:49:21.615Z,94.81
2023-03-30T01:52:02.250Z,94.73
2023-03-30T01:54:34.841Z,95.64
2023-03-30T01:57:07.490Z,96.39
2023-03-30T01:59:40.484Z,96.31
2023-03-30T02:02:08.662Z,96.23
2023-03-30T02:04:39.224Z,95.80
2023-03-30T02:07:10.537Z,96.03
2023-03-30T02:09:38.874Z,96.41
2023-03-30T02:12:06.354Z,96.34
2023-03-30T02:14:35.144Z,95.24
2023-03-30T02:17:07.124Z,94.67
2023-03-30T02:19:38.254Z,93.77
2023-03-30T02:22:06.693Z,93.92
2023-03-30T02:24:34.194Z,93.34
2023-03-30T02:27:03.039Z,93.36
2023-03-30T02:29:32.270Z,94.29
2023-03-30T02:32:00.026Z,93.20
2023-03-30T02:34:37.286Z,92.67
2023-03-30T02:37:12.449Z,92.07
2023-03-30T02:39:48.978Z,90.48
2023-03-30T02:42:26.965Z,89.87
2023-03-30T02:44:55.128Z,89.85
2023-03-30T02:47:22.345Z,89.48
2023-03-30T02:49:58.875Z,87.26
2023-03-30T02:52:27.055Z,85.87
2023-03-30T02:55:00.033Z,86.71
2023-03-30T02:57:31.796Z,85.93
2023-03-30T03:00:02.583Z,85.79
2023-03-30T03:02:32.443Z,86.75
2023-03-30T03:05:04.459Z,87.67
2023-03-30T03:07:34.229Z,87.83
2023-03-30T03:10:01.713Z,88.77
2023-03-30T03:12:29.733Z,88.32
2023-03-30T03:14:56.627Z,89.43
2023-03-30T03:17:24.148Z,89.27
2023-03-30T03:19:51.421Z,89.63
2023-03-30T03:22:18.597Z,89.54
2023-03-30T03:24:45.615Z,89.23
2023-03-30T03:27:12.728Z,89.76
2023-03-30T03:29:39.952Z,90.13
2023-03-30T03:32:07.477Z,90.28
2023-03-30T03:34:34.473Z,90.66
2023-03-30T03:37:01.655Z,89.77
2023-03-30T03:39:28.754Z,89.90
2023-03-30T03:41:55.969Z,90.56
2023-03-30T03:44:22.914Z,90.57
2023-03-30T03:46:50.143Z,91.01
2023-03-30T03:49:17.255Z,90.61
2023-03-30T03:51:44.172Z,90.78
2023-03-30T03:54:11.074Z,91.26
2023-03-30T03:56:38.155Z,90.51
2023-03-30T03:59:05.159Z,90.58
2023-03-30T04:01:32.245Z,90.89
2023-03-30T04:03:59.200Z,90.49
2023-03-30T04:06:27.623Z,91.24
2023-03-30T04:08:54.601Z,90.96
2023-03-30T04:11:22.657Z,90.94
2023-03-30T04:13:50.407Z,91.40
2023-03-30T04:16:17.413Z,90.64
2023-03-30T04:18:44.445Z,90.87
2023-03-30T04:21:13.521Z,91.17
2023-03-30T04:23:46.078Z,90.97
2023-03-30T04:26:14.134Z,91.18
2023-03-30T04:28:40.999Z,90.97
2023-03-30T04:31:10.848Z,91.39
2023-03-30T04:33:46.996Z,91.48
2023-03-30T04:36:18.169Z,90.94
2023-03-30T04:38:45.511Z,91.53
2023-03-30T04:41:14.477Z,92.05
2023-03-30T04:43:41.341Z,91.81
2023-03-30T04:46:08.270Z,91.24
2023-03-30T04:48:35.199Z,91.40
2023-03-30T04:51:02.252Z,90.68
2023-03-30T04:53:29.283Z,91.28
2023-03-30T04:55:56.198Z,91.26
2023-03-30T04:58:26.376Z,91.65
2023-03-30T05:00:54.263Z,91.54
2023-03-30T05:03:23.264Z,90.92
2023-03-30T05:05:50.457Z,91.42
2023-03-30T05:08:17.366Z,91.30
2023-03-30T05:10:44.248Z,91.31
2023-03-30T05:13:11.297Z,91.15
2023-03-30T05:15:38.178Z,90.51
2023-03-30T05:18:05.117Z,90.66
2023-03-30T05:20:32.552Z,90.84
2023-03-30T05:22:59.422Z,90.96
2023-03-30T05:25:26.546Z,91.07
2023-03-30T05:27:53.532Z,91.21
2023-03-30T05:30:20.497Z,91.26
2023-03-30T05:32:47.416Z,91.46
2023-03-30T05:35:14.353Z,91.73
2023-03-30T05:37:42.065Z,91.91
2023-03-30T05:40:10.287Z,92.21
2023-03-30T05:42:37.285Z,90.40
2023-03-30T05:45:04.657Z,90.31
2023-03-30T05:47:31.503Z,90.42
2023-03-30T05:49:58.505Z,90.26
2023-03-30T05:52:25.421Z,90.80
2023-03-30T05:54:52.307Z,91.12
2023-03-30T05:57:19.566Z,90.31
2023-03-30T05:59:46.564Z,90.25
2023-03-30T06:02:14.507Z,90.13
2023-03-30T06:04:41.455Z,90.73
2023-03-30T06:07:08.407Z,91.25
2023-03-30T06:09:35.390Z,90.61
2023-03-30T06:12:02.935Z,89.60
2023-03-30T06:14:29.895Z,89.86
2023-03-30T06:16:57.966Z,89.99
2023-03-30T06:19:24.917Z,90.43
2023-03-30T06:21:51.745Z,89.98
2023-03-30T06:24:20.474Z,90.06
2023-03-30T06:26:48.924Z,89.21
2023-03-30T06:29:15.918Z,88.93
2023-03-30T06:31:42.908Z,89.25
2023-03-30T06:34:10.211Z,89.31
2023-03-30T06:36:45.043Z,89.16
2023-03-30T06:39:13.232Z,89.50
2023-03-30T06:41:40.262Z,89.22
2023-03-30T06:44:10.634Z,88.45
2023-03-30T06:46:37.560Z,88.60
2023-03-30T06:49:04.579Z,87.67
2023-03-30T06:51:31.588Z,88.32
2023-03-30T06:53:58.531Z,87.39
2023-03-30T06:56:25.457Z,86.17
2023-03-30T06:58:53.077Z,86.49
2023-03-30T07:01:20.225Z,86.67
2023-03-30T07:03:48.332Z,86.69
2023-03-30T07:06:16.829Z,86.29
2023-03-30T07:08:45.095Z,86.03
2023-03-30T07:11:12.402Z,85.66
2023-03-30T07:13:39.825Z,85.65
2023-03-30T07:16:07.521Z,85.77
2023-03-30T07:18:34.396Z,85.75
2023-03-30T07:21:01.498Z,85.88
2023-03-30T07:23:28.651Z,85.99
2023-03-30T07:25:55.837Z,86.09
2023-03-30T07:28:26.641Z,85.67
2023-03-30T07:30:53.586Z,85.83
2023-03-30T07:33:22.270Z,85.64
2023-03-30T07:35:50.573Z,85.15
2023-03-30T07:38:17.855Z,84.73
2023-03-30T07:40:44.841Z,85.27
2023-03-30T07:43:12.099Z,85.38
2023-03-30T07:45:39.062Z,85.19
2023-03-30T07:48:06.236Z,84.81
2023-03-30T07:50:33.299Z,85.14
2023-03-30T07:53:00.579Z,84.39
2023-03-30T07:55:29.047Z,84.26
2023-03-30T07:57:57.540Z,84.76
2023-03-30T08:00:25.257Z,84.59
2023-03-30T08:02:52.429Z,84.45
2023-03-30T08:05:19.555Z,84.02
2023-03-30T08:07:47.139Z,83.84
2023-03-30T08:10:14.914Z,83.83
2023-03-30T08:12:42.132Z,83.37
2023-03-30T08:15:09.861Z,82.88
2023-03-30T08:17:36.889Z,82.56
2023-03-30T08:20:08.539Z,81.45
2023-03-30T08:22:35.920Z,81.50
2023-03-30T08:25:03.380Z,80.31
2023-03-30T08:27:30.343Z,79.68
2023-03-30T08:29:57.376Z,79.86
2023-03-30T08:32:24.428Z,79.99
2023-03-30T08:34:52.038Z,79.37
2023-03-30T08:37:19.752Z,80.18
2023-03-30T08:39:46.695Z,79.86
2023-03-30T08:42:14.959Z,79.31
2023-03-30T08:44:43.571Z,79.05
2023-03-30T08:47:13.924Z,79.49
2023-03-30T08:49:44.121Z,79.54
2023-03-30T08:52:14.849Z,79.08
2023-03-30T08:54:41.993Z,80.07
2023-03-30T08:57:21.126Z,78.60
2023-03-30T08:59:53.901Z,77.40
2023-03-30T09:02:29.178Z,77.67
2023-03-30T09:04:58.266Z,77.48
2023-03-30T09:07:27.822Z,77.96
2023-03-30T09:09:55.856Z,77.36
2023-03-30T09:12:37.847Z,77.02
2023-03-30T09:15:14.776Z,76.42
2023-03-30T09:17:44.509Z,77.28
2023-03-30T09:20:21.324Z,75.92
2023-03-30T09:22:49.144Z,76.31
2023-03-30T09:25:18.044Z,76.08
2023-03-30T09:27:48.103Z,75.16
2023-03-30T09:30:21.279Z,75.68
2023-03-30T09:32:54.019Z,75.96
2023-03-30T09:35:26.330Z,76.70
2023-03-30T09:37:53.780Z,77.30
2023-03-30T09:40:25.075Z,77.93
2023-03-30T09:42:57.525Z,78.75
2023-03-30T09:45:31.426Z,79.72
2023-03-30T09:48:04.449Z,80.54
2023-03-30T09:50:32.126Z,80.58
2023-03-30T09:53:00.158Z,80.93
2023-03-30T09:55:29.484Z,80.17
2023-03-30T09:58:11.595Z,79.76
2023-03-30T10:00:39.732Z,79.48
2023-03-30T10:03:07.641Z,77.95
2023-03-30T10:05:36.219Z,77.78
2023-03-30T10:08:05.902Z,78.71
2023-03-30T10:10:36.986Z,78.10
2023-03-30T10:13:05.095Z,78.78
2023-03-30T10:15:32.735Z,78.87
2023-03-30T10:18:06.719Z,77.59
2023-03-30T10:20:36.860Z,76.12
2023-03-30T10:23:05.766Z,76.69
2023-03-30T10:25:34.034Z,77.49
2023-03-30T10:28:03.282Z,76.90
2023-03-30T10:30:30.554Z,76.96
2023-03-30T10:32:59.477Z,77.26
2023-03-30T10:35:35.807Z,77.12
2023-03-30T10:38:04.784Z,75.45
2023-03-30T10:40:37.772Z,75.59
2023-03-30T10:43:06.857Z,73.15
2023-03-30T10:45:34.112Z,73.28
2023-03-30T10:48:10.834Z,71.88
2023-03-30T10:50:42.695Z,72.45
2023-03-30T10:53:19.006Z,72.03
2023-03-30T10:55:47.227Z,71.80
2023-03-30T10:58:23.143Z,71.39
2023-03-30T11:00:59.996Z,69.85
2023-03-30T11:03:29.853Z,69.89
2023-03-30T11:05:59.311Z,70.19
2023-03-30T11:08:30.804Z,69.83
2023-03-30T11:10:59.683Z,70.34
2023-03-30T11:13:30.914Z,70.38
2023-03-30T11:16:08.848Z,70.86
2023-03-30T11:18:36.746Z,72.27
2023-03-30T11:21:07.106Z,72.60
2023-03-30T11:23:44.194Z,73.22
2023-03-30T11:26:13.263Z,73.77
2023-03-30T11:28:48.019Z,73.58
2023-03-30T11:31:27.241Z,74.43
2023-03-30T11:33:58.008Z,73.61
2023-03-30T11:36:31.643Z,72.97
2023-03-30T11:39:04.314Z,72.68
2023-03-30T11:41:49.060Z,73.25
2023-03-30T11:44:16.141Z,72.71
2023-03-30T11:46:52.699Z,72.00
2023-03-30T11:49:25.728Z,69.99
2023-03-30T11:52:04.882Z,69.48
2023-03-30T11:54:35.184Z,69.42
2023-03-30T11:57:03.503Z,70.08
2023-03-30T11:59:37.429Z,69.29
2023-03-30T12:02:14.450Z,69.69
2023-03-30T12:04:48.557Z,67.98
2023-03-30T12:07:26.421Z,67.25
2023-03-30T12:09:56.750Z,67.41
2023-03-30T12:12:28.832Z,66.95
2023-03-30T12:15:05.914Z,68.99
2023-03-30T12:17:43.313Z,67.61
2023-03-30T12:20:10.581Z,69.01
2023-03-30T12:22:37.776Z,71.54
2023-03-30T12:25:13.466Z,74.44
2023-03-30T12:27:53.217Z,76.20
2023-03-30T12:30:29.414Z,75.07
2023-03-30T12:33:01.155Z,72.57
2023-03-30T12:35:46.153Z,71.67
2023-03-30T12:38:18.639Z,69.63
2023-03-30T12:40:47.485Z,68.23
2023-03-30T12:43:15.589Z,68.75
2023-03-30T12:46:02.551Z,68.09
2023-03-30T12:48:39.836Z,67.07
2023-03-30T12:51:14.889Z,67.51
2023-03-30T12:53:52.508Z,67.77
2023-03-30T12:56:26.851Z,67.78
2023-03-30T12:58:54.002Z,66.21
2023-03-30T13:01:31.125Z,66.14
2023-03-30T13:04:02.642Z,66.46
2023-03-30T13:06:34.219Z,66.93
2023-03-30T13:09:10.882Z,66.67
2023-03-30T13:11:57.807Z,65.93
2023-03-30T13:14:27.864Z,65.38
2023-03-30T13:16:55.028Z,65.06
2023-03-30T13:19:22.266Z,65.07
2023-03-30T13:21:51.000Z,64.98
2023-03-30T13:24:25.287Z,66.87
2023-03-30T13:26:52.825Z,65.07
2023-03-30T13:29:21.900Z,64.92
2023-03-30T13:31:58.717Z,64.91
2023-03-30T13:34:34.832Z,65.22
2023-03-30T13:37:03.100Z,65.80
2023-03-30T13:39:42.573Z,66.01
2023-03-30T13:42:20.223Z,66.04
2023-03-30T13:44:53.535Z,66.35
2023-03-30T13:47:31.992Z,69.48
2023-03-30T13:50:01.369Z,69.29
2023-03-30T13:52:31.532Z,69.41
2023-03-30T13:54:58.835Z,68.31
2023-03-30T13:57:31.918Z,68.05
2023-03-30T14:00:02.820Z,68.36
2023-03-30T14:02:31.131Z,67.77
2023-03-30T14:05:08.450Z,67.85
2023-03-30T14:07:41.533Z,67.95
2023-03-30T14:10:19.018Z,67.36
2023-03-30T14:12:48.381Z,66.93
2023-03-30T14:15:18.727Z,67.92
2023-03-30T14:17:47.976Z,67.88
2023-03-30T14:20:15.353Z,68.79
2023-03-30T14:22:46.044Z,68.27
2023-03-30T14:25:22.989Z,69.18
2023-03-30T14:27:49.984Z,68.77
2023-03-30T14:30:21.218Z,67.75
2023-03-30T14:32:48.427Z,67.83
2023-03-30T14:35:16.933Z,68.05
2023-03-30T14:37:51.633Z,66.45
2023-03-30T14:40:20.077Z,66.10
2023-03-30T14:42:47.800Z,66.14
2023-03-30T14:45:18.282Z,65.56
2023-03-30T14:47:47.381Z,64.97
2023-03-30T14:50:16.571Z,64.35
2023-03-30T14:52:46.623Z,65.39
2023-03-30T14:55:18.864Z,65.03
2023-03-30T14:57:46.835Z,64.93
2023-03-30T15:00:20.809Z,65.12
2023-03-30T15:02:51.109Z,65.52
2023-03-30T15:05:19.474Z,65.10
2023-03-30T15:07:47.310Z,66.02
2023-03-30T15:10:23.928Z,65.12
2023-03-30T15:12:52.174Z,65.96
2023-03-30T15:15:27.345Z,65.18
2023-03-30T15:17:55.917Z,64.05
2023-03-30T15:20:24.910Z,64.77
2023-03-30T15:22:52.200Z,64.59
2023-03-30T15:25:21.289Z,63.77
2023-03-30T15:27:56.312Z,64.30
2023-03-30T15:30:29.988Z,64.24
2023-03-30T15:32:57.841Z,65.07
2023-03-30T15:35:27.979Z,65.00
2023-03-30T15:37:59.980Z,64.76
2023-03-30T15:40:36.583Z,65.37
2023-03-30T15:43:12.790Z,64.90
2023-03-30T15:45:41.155Z,65.71
2023-03-30T15:48:10.505Z,65.57
2023-03-30T15:50:37.900Z,65.03
2023-03-30T15:53:06.416Z,66.15
2023-03-30T15:55:34.098Z,66.83
2023-03-30T15:58:01.497Z,65.87
2023-03-30T16:00:30.499Z,65.14
2023-03-30T16:02:59.049Z,65.59
2023-03-30T16:05:29.114Z,66.65
2023-03-30T16:07:56.428Z,67.19
2023-03-30T16:10:26.829Z,66.95
2023-03-30T16:12:55.169Z,66.86
2023-03-30T16:15:23.759Z,66.84
2023-03-30T16:17:51.636Z,67.26
2023-03-30T16:20:21.988Z,67.35
2023-03-30T16:22:49.499Z,68.45
2023-03-30T16:25:17.508Z,68.36
2023-03-30T16:27:44.743Z,67.91
2023-03-30T16:30:12.488Z,67.06
2023-03-30T16:32:39.517Z,66.71
2023-03-30T16:35:07.050Z,66.59
2023-03-30T16:37:34.326Z,66.63
2023-03-30T16:40:01.411Z,67.00
2023-03-30T16:42:28.455Z,67.60
2023-03-30T16:44:55.742Z,67.34
2023-03-30T16:47:22.848Z,68.64
2023-03-30T16:49:50.050Z,67.34
2023-03-30T16:52:17.322Z,68.09
2023-03-30T16:54:44.437Z,67.33
2023-03-30T16:57:11.556Z,68.01
2023-03-30T16:59:38.635Z,68.33
2023-03-30T17:02:05.971Z,68.78
2023-03-30T17:04:33.110Z,69.14
2023-03-30T17:07:00.138Z,69.52
2023-03-30T17:09:27.994Z,69.40
2023-03-30T17:11:54.969Z,69.80
2023-03-30T17:14:24.191Z,69.83
2023-03-30T17:16:51.311Z,70.08
2023-03-30T17:19:18.721Z,69.80
2023-03-30T17:21:46.369Z,69.84
2023-03-30T17:24:15.670Z,70.48
2023-03-30T17:26:42.874Z,70.70
2023-03-30T17:29:10.385Z,70.90
2023-03-30T17:31:38.907Z,71.04
2023-03-30T17:34:07.598Z,70.92
2023-03-30T17:36:34.648Z,70.59
2023-03-30T17:39:05.446Z,71.39
2023-03-30T17:41:34.239Z,71.75
2023-03-30T17:44:01.364Z,72.14
2023-03-30T17:46:28.769Z,71.77
2023-03-30T17:48:55.884Z,72.01
2023-03-30T17:51:22.859Z,71.06
2023-03-30T17:53:49.822Z,72.52
2023-03-30T17:56:17.023Z,72.93
2023-03-30T17:58:44.041Z,73.38
2023-03-30T18:01:13.390Z,72.16
2023-03-30T18:03:40.735Z,73.55
2023-03-30T18:06:08.261Z,73.46
2023-03-30T18:08:36.413Z,73.91
2023-03-30T18:11:04.871Z,73.47
2023-03-30T18:13:32.743Z,71.94
2023-03-30T18:16:01.229Z,73.25
2023-03-30T18:18:30.403Z,74.60
2023-03-30T18:20:59.568Z,74.21
2023-03-30T18:23:26.686Z,73.83
2023-03-30T18:25:54.242Z,75.18
2023-03-30T18:28:22.385Z,76.16
2023-03-30T18:30:49.869Z,75.55
2023-03-30T18:33:17.327Z,75.54
2023-03-30T18:35:45.930Z,74.74
2023-03-30T18:38:13.976Z,77.22
2023-03-30T18:40:42.339Z,76.78
2023-03-30T18:43:09.237Z,76.01
2023-03-30T18:45:38.628Z,75.80
2023-03-30T18:48:07.613Z,76.31
2023-03-30T18:50:36.503Z,76.00
2023-03-30T18:53:04.614Z,76.70
2023-03-30T18:55:32.922Z,77.06
2023-03-30T18:58:00.061Z,76.82
2023-03-30T19:00:28.879Z,75.94
2023-03-30T19:02:57.529Z,76.17
2023-03-30T19:05:25.481Z,76.37
2023-03-30T19:07:52.721Z,77.25
2023-03-30T19:10:21.133Z,78.29
2023-03-30T19:12:53.450Z,77.28
2023-03-30T19:15:21.424Z,77.04
2023-03-30T19:17:49.193Z,77.33
2023-03-30T19:20:17.141Z,77.29
2023-03-30T19:22:44.910Z,77.41
2023-03-30T19:25:13.631Z,77.83
2023-03-30T19:27:52.029Z,78.18
2023-03-30T19:30:29.750Z,76.91
2023-03-30T19:32:59.957Z,78.28
2023-03-30T19:35:27.969Z,78.89
2023-03-30T19:37:55.799Z,78.73
2023-03-30T19:40:23.767Z,78.33
2023-03-30T19:42:51.870Z,79.46
2023-03-30T19:45:21.054Z,78.66
2023-03-30T19:47:49.059Z,78.37
2023-03-30T19:50:18.900Z,79.06
2023-03-30T19:52:48.927Z,79.17
2023-03-30T19:55:16.375Z,78.99
2023-03-30T19:57:43.379Z,79.49
2023-03-30T20:00:16.169Z,79.73
2023-03-30T20:02:45.068Z,79.40
2023-03-30T20:05:13.310Z,80.48
2023-03-30T20:07:40.420Z,80.56
2023-03-30T20:10:09.744Z,80.44
2023-03-30T20:12:37.122Z,80.66
2023-03-30T20:15:06.502Z,80.51
2023-03-30T20:17:34.518Z,80.60
2023-03-30T20:20:07.392Z,79.76
2023-03-30T20:22:35.591Z,80.28
2023-03-30T20:25:03.306Z,80.72
2023-03-30T20:27:30.610Z,81.35
2023-03-30T20:29:57.680Z,81.54
2023-03-30T20:32:24.805Z,82.05
2023-03-30T20:34:52.032Z,82.35
2023-03-30T20:37:18.962Z,81.92
2023-03-30T20:39:46.020Z,81.64
2023-03-30T20:42:13.026Z,82.07
2023-03-30T20:44:41.528Z,82.10
2023-03-30T20:47:09.613Z,82.26
2023-03-30T20:49:39.119Z,81.29
2023-03-30T20:52:08.463Z,81.82
2023-03-30T20:54:37.187Z,82.48
2023-03-30T20:57:05.205Z,82.61
2023-03-30T20:59:33.104Z,82.78
2023-03-30T21:02:00.788Z,82.98
2023-03-30T21:04:28.549Z,83.00
2023-03-30T21:06:59.206Z,83.08
2023-03-30T21:09:28.005Z,83.71
2023-03-30T21:11:55.778Z,84.95
2023-03-30T21:14:25.063Z,85.27
2023-03-30T21:16:52.838Z,86.00
2023-03-30T21:19:19.899Z,87.37
2023-03-30T21:21:46.925Z,89.00
2023-03-30T21:24:15.830Z,89.02
2023-03-30T21:26:47.390Z,90.08
2023-03-30T21:29:16.326Z,90.47
2023-03-30T21:31:43.403Z,90.26
2023-03-30T21:34:11.333Z,91.08
2023-03-30T21:36:38.719Z,91.16
2023-03-30T21:39:05.866Z,91.53
2023-03-30T21:41:33.236Z,91.39
2023-03-30T21:44:00.287Z,92.25
2023-03-30T21:46:27.584Z,91.53
2023-03-30T21:48:55.340Z,93.45
2023-03-30T21:51:23.057Z,93.05
2023-03-30T21:53:51.619Z,93.14
2023-03-30T21:56:20.217Z,92.89
2023-03-30T21:58:47.101Z,92.30
2023-03-30T22:01:14.395Z,92.09
2023-03-30T22:03:42.408Z,92.16
2023-03-30T22:06:10.994Z,91.33
2023-03-30T22:08:38.126Z,92.38
2023-03-30T22:11:06.532Z,92.07
2023-03-30T22:13:33.501Z,90.70
2023-03-30T22:16:02.097Z,90.77
2023-03-30T22:18:29.759Z,91.50
2023-03-30T22:21:00.912Z,91.77
2023-03-30T22:23:27.846Z,92.62
2023-03-30T22:25:54.875Z,92.55
2023-03-30T22:28:21.989Z,92.21
2023-03-30T22:30:49.303Z,92.90
2023-03-30T22:33:17.766Z,92.63
2023-03-30T22:35:45.381Z,92.74
2023-03-30T22:38:13.059Z,92.42
2023-03-30T22:40:42.313Z,92.85
2023-03-30T22:43:09.649Z,92.88
2023-03-30T22:45:36.665Z,93.40
2023-03-30T22:48:04.285Z,93.50
2023-03-30T22:50:31.972Z,94.09
2023-03-30T22:52:58.854Z,94.63
2023-03-30T22:55:25.833Z,94.61
2023-03-30T22:57:53.691Z,94.78
2023-03-30T23:00:21.465Z,94.99
2023-03-30T23:02:49.923Z,94.60
2023-03-30T23:05:17.804Z,95.60
2023-03-30T23:07:46.385Z,96.34
2023-03-30T23:10:15.733Z,95.89
2023-03-30T23:12:43.437Z,96.77
2023-03-30T23:15:11.102Z,97.00
2023-03-30T23:17:38.482Z,97.16
2023-03-30T23:20:06.169Z,97.54
2023-03-30T23:22:32.998Z,97.44
2023-03-30T23:24:59.841Z,97.54
2023-03-30T23:27:26.967Z,97.80
2023-03-30T23:29:53.887Z,98.37
2023-03-30T23:32:23.278Z,98.04
2023-03-30T23:34:50.186Z,98.31
2023-03-30T23:37:18.176Z,98.83
2023-03-30T23:39:47.527Z,99.08
2023-03-30T23:42:14.654Z,99.05
2023-03-30T23:44:41.528Z,98.78
2023-03-30T23:47:08.491Z,98.73
2023-03-30T23:49:35.422Z,98.82
2023-03-30T23:52:02.397Z,97.48
2023-03-30T23:54:31.832Z,96.72
2023-03-30T23:56:58.757Z,96.33
2023-03-30T23:59:25.703Z,96.20
